Time;durP1;ratioP1;P1;durP2;ratioP2;P2;SDS_P1;SDS_P2;PMS_P1;PMS_P2;Temp;Humidity;BMP_temperature;BMP_pressure;BME280_temperature;BME280_humidity;BME280_pressure;Samples;Min_cycle;Max_cycle;Signal;HPM_P1;HPM_P2
2024/04/03 00:01:19;;;;;;;1.05;0.80;;;;;;;13.13;49.40;99607.22;4450362;32;33123;-87
2024/04/03 00:03:46;;;;;;;0.00;0.00;;;;;;;13.07;49.54;99598.69;4450012;32;33657;-87
2024/04/03 00:06:13;;;;;;;0.00;0.00;;;;;;;13.17;49.01;99606.13;4450695;32;34628;-84
2024/04/03 00:08:40;;;;;;;0.00;0.00;;;;;;;13.19;48.02;99602.41;4463691;32;33496;-85
2024/04/03 00:11:07;;;;;;;0.00;0.00;;;;;;;12.82;48.26;99603.69;4450554;32;34613;-84
2024/04/03 00:13:34;;;;;;;0.00;0.00;;;;;;;13.04;48.10;99598.84;4434605;32;33304;-83
2024/04/03 00:16:00;;;;;;;0.00;0.00;;;;;;;13.13;47.29;99596.63;4456285;32;33369;-83
2024/04/03 00:18:27;;;;;;;0.00;0.00;;;;;;;12.97;47.90;99597.50;4438293;32;33751;-83
2024/04/03 00:21:03;;;;;;;0.00;0.00;;;;;;;13.07;47.86;99598.69;4447923;32;33779;-85
2024/04/03 00:23:31;;;;;;;0.10;0.10;;;;;;;13.04;47.87;99598.84;4419771;32;32911;-85
2024/04/03 00:25:59;;;;;;;0.00;0.00;;;;;;;12.78;48.77;99594.19;4454545;32;34908;-84
2024/04/03 00:28:27;;;;;;;0.57;0.30;;;;;;;13.02;48.61;99600.75;4449095;32;34295;-84
2024/04/03 00:30:54;;;;;;;0.00;0.00;;;;;;;12.66;49.60;99598.38;4430226;32;34941;-84
2024/04/03 00:33:21;;;;;;;0.00;0.00;;;;;;;12.89;49.09;99599.72;4479731;32;33883;-84
2024/04/03 00:35:58;;;;;;;1.30;0.60;;;;;;;12.58;50.12;99600.59;4449544;32;33193;-84
2024/04/03 00:38:26;;;;;;;0.00;0.00;;;;;;;12.43;50.64;99602.28;4435055;32;34147;-84
2024/04/03 00:40:57;;;;;;;0.08;0.08;;;;;;;12.30;51.07;99609.19;4461960;32;33575;-84
2024/04/03 00:43:25;;;;;;;0.00;0.00;;;;;;;12.36;50.63;99610.66;4449655;32;34504;-84
2024/04/03 00:45:52;;;;;;;0.00;0.00;;;;;;;12.63;50.02;99603.84;4450072;32;34314;-83
2024/04/03 00:48:20;;;;;;;0.00;0.00;;;;;;;12.50;50.09;99601.00;4442406;32;33329;-84
2024/04/03 00:50:48;;;;;;;0.00;0.00;;;;;;;12.21;51.68;99596.44;4450792;32;32489;-84
2024/04/03 00:53:16;;;;;;;0.00;0.00;;;;;;;12.11;51.95;99584.66;4431442;32;34488;-83
2024/04/03 00:55:42;;;;;;;0.00;0.00;;;;;;;12.28;51.23;99593.38;4447686;32;32701;-84
2024/04/03 00:58:09;;;;;;;4.97;0.40;;;;;;;12.25;51.22;99593.56;4455228;32;32993;-84
2024/04/03 01:00:36;;;;;;;0.00;0.00;;;;;;;12.09;51.53;99589.16;4451287;32;33367;-84
2024/04/03 01:03:04;;;;;;;0.00;0.00;;;;;;;12.04;51.65;99599.97;4450416;32;32553;-84
2024/04/03 01:05:30;;;;;;;0.45;0.22;;;;;;;11.88;52.29;99604.37;4452481;32;32586;-83
2024/04/03 01:07:57;;;;;;;0.00;0.00;;;;;;;12.33;51.05;99587.81;4443493;32;34634;-84
2024/04/03 01:10:25;;;;;;;0.00;0.00;;;;;;;11.92;52.14;99585.62;4454671;32;34595;-83
2024/04/03 01:12:54;;;;;;;0.00;0.00;;;;;;;11.76;52.31;99595.25;4466574;32;33551;-83
2024/04/03 01:15:21;;;;;;;0.20;0.20;;;;;;;11.48;53.40;99591.34;4451386;32;34538;-85
2024/04/03 01:17:48;;;;;;;0.00;0.00;;;;;;;11.45;53.36;99596.81;4456783;32;32290;-84
2024/04/03 01:20:16;;;;;;;0.65;0.35;;;;;;;11.38;53.76;99600.69;4456679;32;34266;-84
2024/04/03 01:22:43;;;;;;;0.00;0.00;;;;;;;11.44;53.67;99605.69;4443837;32;32649;-85
2024/04/03 01:25:09;;;;;;;0.00;0.00;;;;;;;11.64;52.91;99595.88;4456166;32;34075;-84
2024/04/03 01:27:36;;;;;;;0.00;0.00;;;;;;;11.35;53.77;99600.00;4449903;32;31798;-84
2024/04/03 01:30:03;;;;;;;0.00;0.00;;;;;;;11.31;53.78;99587.88;4440960;32;32882;-84
2024/04/03 01:32:32;;;;;;;0.00;0.00;;;;;;;11.06;54.54;99593.50;4454070;32;32831;-85
2024/04/03 01:34:58;;;;;;;0.00;0.00;;;;;;;11.06;54.24;99599.63;4452694;32;33518;-85
2024/04/03 01:37:26;;;;;;;0.98;0.10;;;;;;;10.84;55.43;99589.28;4447060;32;33272;-83
2024/04/03 01:39:52;;;;;;;0.47;0.28;;;;;;;10.77;55.69;99593.12;4454547;32;33983;-83
2024/04/03 01:42:20;;;;;;;0.35;0.35;;;;;;;11.07;54.05;99588.16;4450593;32;33089;-83
2024/04/03 01:44:48;;;;;;;0.00;0.00;;;;;;;10.77;54.89;99593.97;4431797;32;34029;-83
2024/04/03 01:47:14;;;;;;;0.00;0.00;;;;;;;10.72;55.27;99595.97;4445124;32;34058;-84
2024/04/03 01:49:41;;;;;;;0.00;0.00;;;;;;;10.54;55.88;99590.72;4457609;32;34482;-84
2024/04/03 01:52:08;;;;;;;0.00;0.00;;;;;;;10.71;55.43;99593.41;4457037;32;34650;-84
2024/04/03 01:54:34;;;;;;;0.00;0.00;;;;;;;10.82;54.96;99591.09;4467619;32;34114;-84
2024/04/03 01:57:01;;;;;;;0.00;0.00;;;;;;;10.63;55.75;99590.28;4443485;32;32096;-86
2024/04/03 01:59:28;;;;;;;0.00;0.00;;;;;;;10.63;55.52;99590.28;4443046;32;32933;-85
2024/04/03 02:01:55;;;;;;;0.00;0.00;;;;;;;10.77;54.75;99593.97;4438371;32;35477;-85
2024/04/03 02:04:22;;;;;;;0.00;0.00;;;;;;;10.58;55.16;99597.56;4448727;32;34826;-84
2024/04/03 02:06:49;;;;;;;0.28;0.08;;;;;;;10.42;55.49;99598.28;4449876;32;33315;-84
2024/04/03 02:09:15;;;;;;;0.00;0.00;;;;;;;10.29;56.26;99599.75;4448838;32;33827;-83
2024/04/03 02:11:42;;;;;;;0.00;0.00;;;;;;;10.35;56.03;99588.94;4438959;32;33615;-82
2024/04/03 02:14:12;;;;;;;0.17;0.17;;;;;;;10.51;55.59;99603.13;4455225;32;33425;-82
2024/04/03 02:16:47;;;;;;;0.00;0.00;;;;;;;10.59;55.19;99591.38;4461013;32;34344;-82
2024/04/03 02:19:14;;;;;;;0.00;0.00;;;;;;;10.58;55.15;99592.28;4466114;32;34617;-82
2024/04/03 02:21:40;;;;;;;0.00;0.00;;;;;;;10.21;56.14;99591.34;4456999;32;34730;-82
2024/04/03 02:24:07;;;;;;;0.00;0.00;;;;;;;10.32;56.00;99591.72;4456855;32;33523;-84
2024/04/03 02:26:34;;;;;;;0.00;0.00;;;;;;;10.27;56.04;99595.50;4444046;32;31961;-84
2024/04/03 02:29:00;;;;;;;1.85;0.30;;;;;;;10.15;56.37;99591.59;4469588;32;33593;-84
2024/04/03 02:31:28;;;;;;;0.20;0.20;;;;;;;10.21;56.19;99588.69;4469472;32;34648;-84
2024/04/03 02:33:55;;;;;;;0.13;0.13;;;;;;;10.03;56.69;99592.16;4456840;32;34132;-84
2024/04/03 02:36:22;;;;;;;0.00;0.00;;;;;;;10.00;56.55;99594.00;4455617;32;32605;-84
2024/04/03 02:38:49;;;;;;;0.00;0.00;;;;;;;10.14;56.08;99587.25;4450852;32;32508;-86
2024/04/03 02:41:16;;;;;;;0.00;0.00;;;;;;;10.22;55.35;99590.41;4439128;32;33142;-86
2024/04/03 02:43:42;;;;;;;3.03;1.15;;;;;;;10.12;56.06;99589.97;4440337;32;34434;-86
2024/04/03 02:46:09;;;;;;;0.17;0.17;;;;;;;10.04;56.41;99596.50;4455557;32;33469;-86
2024/04/03 02:48:36;;;;;;;0.08;0.08;;;;;;;10.18;56.17;99588.81;4456236;32;32909;-86
2024/04/03 02:51:04;;;;;;;0.00;0.00;;;;;;;9.79;57.05;99594.94;4468909;32;34675;-86
2024/04/03 02:53:32;;;;;;;0.00;0.00;;;;;;;10.07;55.91;99585.81;4437572;32;33664;-85
2024/04/03 02:56:00;;;;;;;0.17;0.17;;;;;;;9.98;56.16;99587.94;4435398;32;34152;-84
2024/04/03 02:58:27;;;;;;;0.00;0.00;;;;;;;10.12;55.67;99589.09;4441230;32;33562;-84
2024/04/03 03:01:04;;;;;;;0.00;0.00;;;;;;;9.99;56.29;99594.91;4469555;32;32090;-85
2024/04/03 03:03:31;;;;;;;0.00;0.00;;;;;;;10.49;54.58;99583.88;4421786;32;34826;-85
2024/04/03 03:05:58;;;;;;;0.10;0.10;;;;;;;9.97;55.88;99596.78;4453440;32;33407;-84
2024/04/03 03:08:29;;;;;;;0.00;0.00;;;;;;;9.93;56.13;99596.97;4447010;32;32967;-84
2024/04/03 03:10:57;;;;;;;0.15;0.15;;;;;;;9.81;56.55;99601.00;4435972;32;35568;-84
2024/04/03 03:13:26;;;;;;;0.00;0.00;;;;;;;9.75;56.65;99606.56;4455282;32;34281;-85
2024/04/03 03:16:00;;;;;;;0.00;0.00;;;;;;;9.73;56.79;99605.75;4450169;32;32526;-84
2024/04/03 03:18:28;;;;;;;0.00;0.00;;;;;;;9.51;57.37;99608.47;4422355;32;33516;-86
2024/04/03 03:20:56;;;;;;;0.00;0.00;;;;;;;9.62;57.07;99608.00;4453195;32;33783;-85
2024/04/03 03:23:23;;;;;;;0.00;0.00;;;;;;;9.70;56.72;99600.62;4468693;32;32767;-85
2024/04/03 03:25:53;;;;;;;0.20;0.20;;;;;;;9.61;57.21;99611.56;4455967;32;32387;-85
2024/04/03 03:28:21;;;;;;;0.00;0.00;;;;;;;9.59;56.97;99616.03;4446985;32;33013;-84
2024/04/03 03:30:52;;;;;;;0.08;0.08;;;;;;;9.49;57.67;99611.16;4468504;32;34495;-84
2024/04/03 03:33:19;;;;;;;0.32;0.32;;;;;;;9.34;58.09;99621.47;4457901;32;34189;-84
2024/04/03 03:35:56;;;;;;;2.92;0.15;;;;;;;9.14;58.50;99619.66;4454577;32;34213;-84
2024/04/03 03:38:23;;;;;;;0.90;0.75;;;;;;;9.22;58.50;99613.16;4443134;32;34438;-84
2024/04/03 03:40:53;;;;;;;1.77;0.65;;;;;;;9.38;57.73;99612.53;4468376;32;34663;-84
2024/04/03 03:43:20;;;;;;;0.00;0.00;;;;;;;9.33;58.06;99615.34;4436037;32;32777;-84
2024/04/03 03:45:48;;;;;;;0.00;0.00;;;;;;;9.39;57.72;99623.00;4450288;32;33772;-84
2024/04/03 03:48:16;;;;;;;0.37;0.37;;;;;;;9.33;57.77;99625.03;4459145;32;34443;-85
2024/04/03 03:53:31;;;;;;;0.00;0.00;;;;;;;9.21;58.16;99626.41;4443873;32;34402;-83
2024/04/03 03:56:08;;;;;;;0.00;0.00;;;;;;;9.19;58.13;99628.25;4469097;32;33944;-83
2024/04/03 03:58:35;;;;;;;0.00;0.00;;;;;;;9.05;58.32;99630.56;4454683;32;33121;-83
2024/04/03 04:01:03;;;;;;;0.00;0.00;;;;;;;9.02;58.59;99628.94;4458015;32;33874;-83
2024/04/03 04:03:30;;;;;;;0.00;0.00;;;;;;;8.99;58.31;99626.41;4457256;32;34131;-83
2024/04/03 04:06:00;;;;;;;0.00;0.00;;;;;;;8.96;58.40;99631.78;4463883;32;32558;-83
2024/04/03 04:08:27;;;;;;;0.00;0.00;;;;;;;9.07;58.42;99637.50;4457483;32;31974;-83
2024/04/03 04:10:55;;;;;;;0.20;0.20;;;;;;;9.27;57.49;99634.06;4457740;32;33359;-83
2024/04/03 04:13:21;;;;;;;0.45;0.45;;;;;;;8.99;58.36;99642.22;4456953;32;33633;-84
2024/04/03 04:15:48;;;;;;;0.00;0.00;;;;;;;9.35;57.02;99639.88;4430895;32;32218;-84
2024/04/03 04:18:15;;;;;;;0.00;0.00;;;;;;;9.05;57.89;99641.09;4435451;32;34484;-84
2024/04/03 04:20:42;;;;;;;0.13;0.13;;;;;;;8.85;58.59;99634.84;4451908;32;33707;-84
2024/04/03 04:23:09;;;;;;;0.00;0.00;;;;;;;8.88;58.88;99633.88;4457430;32;33100;-84
2024/04/03 04:25:36;;;;;;;0.00;0.00;;;;;;;8.74;59.28;99642.31;4457863;32;31718;-83
2024/04/03 04:28:02;;;;;;;0.10;0.10;;;;;;;8.88;58.98;99624.22;4458016;32;33547;-83
2024/04/03 04:30:29;;;;;;;0.05;0.00;;;;;;;8.82;59.01;99620.94;4453058;32;34268;-83
2024/04/03 04:32:56;;;;;;;0.00;0.00;;;;;;;8.97;58.55;99625.59;4429159;32;33335;-83
2024/04/03 04:35:22;;;;;;;0.00;0.00;;;;;;;8.90;58.72;99626.78;4465305;32;32917;-83
2024/04/03 04:37:49;;;;;;;0.00;0.00;;;;;;;8.97;58.44;99622.97;4452787;32;32023;-83
2024/04/03 04:40:15;;;;;;;0.00;0.00;;;;;;;8.86;58.78;99615.50;4452621;32;34372;-83
2024/04/03 04:42:43;;;;;;;0.00;0.00;;;;;;;8.83;59.35;99614.75;4466532;32;32896;-83
2024/04/03 04:45:10;;;;;;;0.00;0.00;;;;;;;8.98;58.65;99620.28;4455935;32;32529;-83
2024/04/03 04:47:36;;;;;;;0.00;0.00;;;;;;;8.94;58.74;99618.69;4443247;32;34697;-83
2024/04/03 04:50:03;;;;;;;0.00;0.00;;;;;;;8.86;59.20;99606.75;4470632;32;33740;-83
2024/04/03 04:52:30;;;;;;;0.00;0.00;;;;;;;8.94;59.37;99608.16;4454170;32;33309;-83
2024/04/03 04:54:57;;;;;;;0.00;0.00;;;;;;;8.83;59.47;99609.50;4460944;32;33611;-83
2024/04/03 04:57:24;;;;;;;0.10;0.10;;;;;;;8.87;59.27;99596.13;4440106;32;32224;-86
2024/04/03 04:59:50;;;;;;;0.00;0.00;;;;;;;9.03;59.43;99596.41;4455744;32;34149;-84
2024/04/03 05:02:17;;;;;;;0.22;0.22;;;;;;;9.12;59.11;99593.41;4438158;32;35001;-86
2024/04/03 05:04:44;;;;;;;0.00;0.00;;;;;;;9.09;59.68;99590.03;4450897;32;33593;-87
2024/04/03 05:07:10;;;;;;;0.03;0.03;;;;;;;9.19;59.52;99597.47;4469643;32;31817;-88
2024/04/03 05:09:37;;;;;;;1.02;0.65;;;;;;;9.40;59.07;99606.28;4434581;32;35193;-88
2024/04/03 05:12:04;;;;;;;0.35;0.35;;;;;;;9.40;58.93;99601.00;4457116;32;34397;-87
2024/04/03 05:14:31;;;;;;;0.05;0.05;;;;;;;9.89;57.98;99603.31;4457132;32;33504;-87
2024/04/03 05:16:58;;;;;;;0.52;0.40;;;;;;;9.74;58.09;99603.06;4460929;32;33466;-88
2024/04/03 05:19:24;;;;;;;0.00;0.00;;;;;;;9.46;59.68;99598.13;4460428;32;33437;-87
2024/04/03 05:21:50;;;;;;;0.15;0.15;;;;;;;9.66;59.45;99606.94;4464803;32;34027;-87
2024/04/03 05:24:17;;;;;;;0.00;0.00;;;;;;;9.71;59.36;99612.87;4444388;32;34397;-88
2024/04/03 05:26:44;;;;;;;1.70;0.73;;;;;;;9.78;59.28;99610.81;4457190;32;33650;-88
2024/04/03 05:29:11;;;;;;;0.10;0.10;;;;;;;9.98;58.70;99601.12;4445876;32;33867;-86
2024/04/03 05:31:38;;;;;;;0.30;0.30;;;;;;;10.08;58.66;99604.22;4453048;32;32841;-85
2024/04/03 05:34:05;;;;;;;0.00;0.00;;;;;;;10.21;58.57;99599.25;4453510;32;33358;-85
2024/04/03 05:36:31;;;;;;;0.00;0.00;;;;;;;10.16;58.99;99603.84;4445931;32;32511;-85
2024/04/03 05:38:58;;;;;;;0.00;0.00;;;;;;;10.46;58.61;99610.41;4441042;32;33287;-85
2024/04/03 05:41:26;;;;;;;0.08;0.08;;;;;;;10.57;58.46;99604.63;4461582;32;33506;-85
2024/04/03 05:43:53;;;;;;;3.47;2.83;;;;;;;10.66;58.29;99611.25;4469010;32;32853;-85
2024/04/03 05:46:20;;;;;;;6.28;1.85;;;;;;;10.66;58.40;99622.69;4427871;32;34447;-85
2024/04/03 05:48:46;;;;;;;1.30;1.20;;;;;;;10.79;57.44;99622.13;4463789;32;34123;-85
2024/04/03 05:51:13;;;;;;;0.40;0.40;;;;;;;10.49;57.97;99628.75;4457550;32;33286;-87
2024/04/03 05:53:40;;;;;;;0.20;0.20;;;;;;;10.69;57.61;99632.25;4434820;32;34018;-88
2024/04/03 05:56:07;;;;;;;0.32;0.32;;;;;;;10.95;57.12;99623.94;4453019;32;33432;-88
2024/04/03 05:58:34;;;;;;;0.20;0.20;;;;;;;11.35;56.24;99632.59;4470078;32;33723;-86
2024/04/03 06:01:01;;;;;;;0.93;0.90;;;;;;;11.83;55.66;99625.78;4429192;32;35534;-87
2024/04/03 06:03:29;;;;;;;2.25;1.52;;;;;;;12.22;55.04;99627.28;4442256;32;33564;-87
2024/04/03 06:05:59;;;;;;;0.10;0.10;;;;;;;12.44;55.16;99619.03;4457280;32;32743;-87
2024/04/03 06:08:26;;;;;;;0.93;0.25;;;;;;;12.53;54.15;99619.41;4451518;32;34228;-86
2024/04/03 06:10:53;;;;;;;1.00;0.62;;;;;;;12.66;53.52;99613.41;4421718;32;35517;-86
2024/04/03 06:13:20;;;;;;;0.20;0.20;;;;;;;12.98;51.94;99616.91;4450822;32;33078;-86
2024/04/03 06:15:46;;;;;;;1.87;1.23;;;;;;;13.13;50.38;99615.19;4457168;32;32463;-86
2024/04/03 06:18:13;;;;;;;0.03;0.03;;;;;;;13.12;51.30;99616.12;4454321;32;33705;-85
2024/04/03 06:20:40;;;;;;;0.88;0.62;;;;;;;13.22;51.70;99622.66;4456104;32;33957;-88
2024/04/03 06:23:08;;;;;;;1.08;0.98;;;;;;;13.20;51.18;99619.22;4445938;32;32790;-87
2024/04/03 06:25:36;;;;;;;0.65;0.65;;;;;;;13.58;50.79;99614.38;4424208;32;33487;-86
2024/04/03 06:28:06;;;;;;;0.00;0.00;;;;;;;13.68;48.80;99612.03;4454840;32;32693;-86
2024/04/03 06:30:33;;;;;;;0.43;0.35;;;;;;;13.45;51.05;99624.81;4461623;32;34090;-85
2024/04/03 06:33:00;;;;;;;0.00;0.00;;;;;;;13.41;50.85;99620.63;4442251;32;33917;-85
2024/04/03 06:35:26;;;;;;;0.20;0.20;;;;;;;13.50;50.57;99625.41;4457337;32;31852;-85
2024/04/03 06:37:53;;;;;;;1.08;0.20;;;;;;;13.47;50.51;99625.59;4450516;32;33492;-85
2024/04/03 06:40:20;;;;;;;2.17;0.80;;;;;;;13.75;49.37;99623.97;4451673;32;35733;-85
2024/04/03 06:42:46;;;;;;;0.35;0.30;;;;;;;13.79;49.33;99617.53;4444465;32;32001;-85
2024/04/03 06:45:13;;;;;;;2.60;1.45;;;;;;;13.91;50.03;99622.13;4442081;32;33122;-85
2024/04/03 06:47:40;;;;;;;0.00;0.00;;;;;;;14.30;48.46;99616.16;4442921;32;34686;-85
2024/04/03 06:50:06;;;;;;;0.60;0.60;;;;;;;14.47;48.69;99609.78;4451132;31;33278;-85
2024/04/03 06:52:33;;;;;;;0.10;0.10;;;;;;;14.80;47.30;99612.13;4448274;32;31914;-85
2024/04/03 06:55:01;;;;;;;0.00;0.00;;;;;;;14.91;47.46;99621.22;4442914;32;32835;-85
2024/04/03 06:57:28;;;;;;;0.10;0.10;;;;;;;15.05;46.27;99616.75;4449137;32;34581;-85
2024/04/03 06:59:54;;;;;;;0.00;0.00;;;;;;;15.17;45.44;99627.53;4442743;32;34055;-85
2024/04/03 07:02:21;;;;;;;0.13;0.13;;;;;;;14.53;47.35;99636.03;4458436;32;33953;-85
2024/04/03 07:04:48;;;;;;;1.10;0.25;;;;;;;14.95;46.72;99630.72;4456054;32;33994;-85
2024/04/03 07:07:15;;;;;;;0.62;0.35;;;;;;;15.13;46.12;99634.00;4456071;32;33935;-85
2024/04/03 07:09:42;;;;;;;0.00;0.00;;;;;;;14.99;46.79;99633.06;4435036;32;34052;-85
2024/04/03 07:12:09;;;;;;;0.17;0.15;;;;;;;15.56;45.75;99635.53;4452785;32;32807;-84
2024/04/03 07:14:35;;;;;;;0.57;0.47;;;;;;;15.50;45.93;99625.28;4449788;32;33600;-85
2024/04/03 07:17:02;;;;;;;0.10;0.10;;;;;;;15.31;46.29;99635.44;4429811;32;34646;-85
2024/04/03 07:19:29;;;;;;;0.00;0.00;;;;;;;15.88;46.54;99621.88;4456872;32;34819;-85
2024/04/03 07:21:56;;;;;;;0.00;0.00;;;;;;;16.21;45.02;99631.19;4431570;32;31985;-86
2024/04/03 07:24:22;;;;;;;0.10;0.10;;;;;;;15.69;45.20;99640.06;4441770;32;32181;-86
2024/04/03 07:26:49;;;;;;;0.03;0.03;;;;;;;15.44;45.30;99643.50;4444451;32;34864;-85
2024/04/03 07:29:18;;;;;;;0.00;0.00;;;;;;;15.30;44.71;99641.72;4435342;32;32807;-85
2024/04/03 07:31:44;;;;;;;0.10;0.10;;;;;;;15.45;45.12;99653.16;4431286;32;34810;-87
2024/04/03 07:34:11;;;;;;;0.00;0.00;;;;;;;15.60;45.22;99649.47;4435762;32;32319;-85
2024/04/03 07:36:38;;;;;;;0.93;0.43;;;;;;;15.50;46.21;99659.03;4460790;32;33229;-85
2024/04/03 07:39:05;;;;;;;0.00;0.00;;;;;;;15.51;45.79;99661.59;4435914;32;34367;-85
2024/04/03 07:41:33;;;;;;;0.47;0.20;;;;;;;15.45;46.05;99666.47;4435561;32;31791;-85
2024/04/03 07:43:59;;;;;;;0.60;0.60;;;;;;;14.95;48.06;99668.78;4444977;32;33719;-84
2024/04/03 07:46:27;;;;;;;0.00;0.00;;;;;;;15.24;48.77;99676.69;4444206;32;34230;-84
2024/04/03 07:48:53;;;;;;;0.20;0.17;;;;;;;15.75;48.52;99668.94;4442892;32;32502;-81
2024/04/03 07:51:20;;;;;;;0.00;0.00;;;;;;;16.05;49.19;99661.53;4446386;32;33649;-81
2024/04/03 07:53:47;;;;;;;0.43;0.35;;;;;;;15.79;50.31;99670.44;4448818;32;32516;-81
2024/04/03 07:56:14;;;;;;;0.45;0.45;;;;;;;16.02;50.20;99667.06;4445134;32;33878;-82
2024/04/03 07:58:42;;;;;;;0.00;0.00;;;;;;;15.81;49.22;99666.72;4428764;32;32454;-81
2024/04/03 08:01:09;;;;;;;0.00;0.00;;;;;;;15.96;49.14;99664.84;4450749;32;33127;-81
2024/04/03 08:03:37;;;;;;;0.00;0.00;;;;;;;16.07;48.30;99659.59;4438137;32;34576;-81
2024/04/03 08:06:05;;;;;;;0.20;0.20;;;;;;;16.70;47.28;99657.03;4441089;32;33454;-81
2024/04/03 08:08:32;;;;;;;0.15;0.15;;;;;;;16.56;47.64;99655.34;4452922;32;33110;-82
2024/04/03 08:11:02;;;;;;;0.62;0.37;;;;;;;16.21;48.88;99665.81;4454801;32;34333;-82
2024/04/03 08:13:29;;;;;;;0.00;0.00;;;;;;;16.95;47.21;99664.13;4451868;32;33572;-82
2024/04/03 08:16:04;;;;;;;4.00;1.20;;;;;;;17.15;46.40;99659.09;4436820;32;33805;-82
2024/04/03 08:18:32;;;;;;;0.00;0.00;;;;;;;16.69;47.60;99661.50;4442260;32;33186;-84
2024/04/03 08:21:11;;;;;;;1.83;0.47;;;;;;;17.00;46.57;99656.69;4442384;32;33422;-82
2024/04/03 08:23:38;;;;;;;0.20;0.20;;;;;;;17.06;46.57;99658.91;4447142;32;33331;-82
2024/04/03 08:26:09;;;;;;;0.20;0.20;;;;;;;17.11;46.23;99657.59;4439926;32;32694;-82
2024/04/03 08:28:37;;;;;;;0.43;0.40;;;;;;;17.40;47.05;99651.94;4445879;32;33192;-82
2024/04/03 08:31:15;;;;;;;0.00;0.00;;;;;;;18.09;44.93;99650.28;4454257;32;34381;-81
2024/04/03 08:33:42;;;;;;;0.00;0.00;;;;;;;17.43;42.69;99653.53;4441694;32;32802;-82
2024/04/03 08:36:12;;;;;;;0.00;0.00;;;;;;;18.21;41.06;99652.97;4440868;32;35313;-82
2024/04/03 08:38:39;;;;;;;0.00;0.00;;;;;;;18.29;42.21;99655.91;4442114;32;32689;-82
2024/04/03 08:41:05;;;;;;;0.00;0.00;;;;;;;17.75;41.89;99651.13;4454373;32;34039;-82
2024/04/03 08:43:36;;;;;;;0.00;0.00;;;;;;;17.94;42.31;99648.75;4454486;32;32257;-84
2024/04/03 08:46:02;;;;;;;0.85;0.30;;;;;;;18.26;41.34;99646.28;4441617;32;33572;-86
2024/04/03 08:48:29;;;;;;;0.00;0.00;;;;;;;18.44;39.56;99644.00;4441039;32;33306;-86
2024/04/03 08:50:56;;;;;;;0.00;0.00;;;;;;;18.32;38.77;99642.28;4452098;32;34493;-86
2024/04/03 08:53:24;;;;;;;0.10;0.10;;;;;;;18.51;38.91;99642.53;4435868;32;33251;-86
2024/04/03 08:55:54;;;;;;;0.10;0.10;;;;;;;18.48;37.97;99642.78;4442116;32;32690;-85
2024/04/03 08:58:22;;;;;;;0.10;0.10;;;;;;;18.32;39.40;99639.59;4458670;32;34334;-85
2024/04/03 09:00:49;;;;;;;0.00;0.00;;;;;;;19.04;39.29;99621.38;4484410;32;32476;-86
2024/04/03 09:03:16;;;;;;;0.60;0.30;;;;;;;19.32;38.80;99619.06;4460701;32;33763;-86
2024/04/03 09:05:43;;;;;;;0.32;0.32;;;;;;;19.53;38.48;99616.47;4457541;32;33212;-86
2024/04/03 09:08:10;;;;;;;0.35;0.35;;;;;;;19.19;35.19;99609.41;4457599;32;34158;-86
2024/04/03 09:10:43;;;;;;;0.00;0.00;;;;;;;19.38;33.47;99613.22;4444886;32;32100;-86
2024/04/03 09:13:11;;;;;;;1.95;1.00;;;;;;;19.71;33.36;99598.88;4460428;32;33804;-85
2024/04/03 09:15:37;;;;;;;0.10;0.10;;;;;;;19.15;34.37;99618.66;4445084;32;32893;-86
2024/04/03 09:18:08;;;;;;;0.00;0.00;;;;;;;19.68;34.32;99613.34;4470753;32;33960;-85
2024/04/03 09:20:39;;;;;;;0.00;0.00;;;;;;;19.44;36.31;99612.72;4456365;32;32853;-85
2024/04/03 09:23:08;;;;;;;0.00;0.00;;;;;;;19.52;36.82;99610.25;4457627;32;36079;-86
2024/04/03 09:25:36;;;;;;;0.00;0.00;;;;;;;19.55;36.29;99603.78;4444656;32;34676;-86
2024/04/03 09:28:06;;;;;;;0.20;0.10;;;;;;;20.13;35.13;99588.97;4444415;32;33673;-86
2024/04/03 09:30:33;;;;;;;0.00;0.00;;;;;;;20.32;35.03;99592.72;4456721;32;31336;-87
2024/04/03 09:33:01;;;;;;;0.00;0.00;;;;;;;20.38;34.81;99586.84;4469787;32;33177;-86
2024/04/03 09:35:29;;;;;;;0.37;0.28;;;;;;;20.19;33.84;99590.28;4456573;32;33820;-86
2024/04/03 09:37:56;;;;;;;0.43;0.30;;;;;;;20.04;34.65;99589.78;4457114;32;34837;-86
2024/04/03 09:40:25;;;;;;;0.08;0.08;;;;;;;20.69;33.72;99585.00;4457583;32;33425;-86
2024/04/03 09:43:06;;;;;;;0.10;0.10;;;;;;;20.44;34.12;99580.94;4448198;32;33653;-86
2024/04/03 09:45:34;;;;;;;0.03;0.03;;;;;;;21.04;32.75;99595.25;4455653;32;33413;-86
2024/04/03 09:48:08;;;;;;;0.00;0.00;;;;;;;21.06;31.79;99587.06;4443812;32;33750;-86
2024/04/03 09:50:44;;;;;;;0.15;0.15;;;;;;;21.22;32.29;99582.84;4457289;32;33816;-86
2024/04/03 09:53:22;;;;;;;0.00;0.00;;;;;;;20.88;31.98;99578.81;4469819;32;34508;-86
2024/04/03 09:55:51;;;;;;;0.00;0.00;;;;;;;21.51;31.04;99578.47;4447245;32;33624;-86
2024/04/03 09:58:19;;;;;;;0.00;0.00;;;;;;;21.33;30.00;99586.41;4458161;32;34464;-87
2024/04/03 10:00:57;;;;;;;0.00;0.00;;;;;;;21.65;29.32;99573.53;4457484;32;32397;-86
2024/04/03 10:03:26;;;;;;;0.00;0.00;;;;;;;21.35;28.84;99576.38;4468608;32;33777;-86
2024/04/03 10:06:09;;;;;;;0.00;0.00;;;;;;;20.95;29.46;99564.72;4470765;32;33914;-86
2024/04/03 10:08:45;;;;;;;0.10;0.10;;;;;;;20.69;29.54;99567.06;4457115;32;32410;-86
2024/04/03 10:11:14;;;;;;;0.00;0.00;;;;;;;20.37;28.86;99552.97;4456968;32;33629;-86
2024/04/03 10:13:44;;;;;;;1.98;0.70;;;;;;;21.32;29.45;99549.81;4468618;32;33184;-86
2024/04/03 10:16:15;;;;;;;5.90;0.20;;;;;;;21.41;27.56;99541.75;4455293;32;34672;-86
2024/04/03 10:18:48;;;;;;;0.00;0.00;;;;;;;21.78;28.20;99550.87;4462223;32;33076;-86
2024/04/03 10:21:14;;;;;;;0.00;0.00;;;;;;;21.36;26.89;99554.72;4468349;32;32757;-86
2024/04/03 10:23:50;;;;;;;0.00;0.00;;;;;;;22.05;27.30;99533.97;4456859;32;32041;-86
2024/04/03 10:26:20;;;;;;;0.30;0.30;;;;;;;22.08;26.23;99536.37;4470197;32;34561;-86
2024/04/03 10:28:47;;;;;;;0.00;0.00;;;;;;;22.65;25.92;99535.28;4470568;32;34080;-86
2024/04/03 10:31:18;;;;;;;0.00;0.00;;;;;;;21.88;26.08;99540.94;4461903;32;31724;-86
2024/04/03 10:33:51;;;;;;;0.00;0.00;;;;;;;21.93;26.91;99542.22;4469339;32;32348;-86
2024/04/03 10:36:18;;;;;;;0.00;0.00;;;;;;;21.53;26.68;99547.81;4469885;32;34753;-86
2024/04/03 10:38:45;;;;;;;0.52;0.15;;;;;;;21.56;27.08;99544.84;4457283;32;34148;-86
2024/04/03 10:41:12;;;;;;;0.03;0.00;;;;;;;22.07;26.24;99540.03;4456893;32;32059;-86
2024/04/03 10:43:39;;;;;;;0.00;0.00;;;;;;;22.44;25.17;99532.00;4442030;32;35554;-86
2024/04/03 10:46:10;;;;;;;0.00;0.00;;;;;;;22.28;26.53;99534.50;4456604;32;33041;-86
2024/04/03 10:48:42;;;;;;;0.00;0.00;;;;;;;21.94;26.35;99533.16;4456944;32;34889;-86
2024/04/03 10:51:09;;;;;;;0.00;0.00;;;;;;;22.05;27.07;99526.75;4454120;32;32476;-86
2024/04/03 10:53:36;;;;;;;0.30;0.22;;;;;;;22.60;27.65;99524.12;4456939;32;32366;-87
2024/04/03 10:56:04;;;;;;;0.00;0.00;;;;;;;22.80;27.26;99515.94;4457052;32;32435;-86
2024/04/03 10:58:31;;;;;;;0.00;0.00;;;;;;;22.73;27.65;99516.53;4449485;32;34446;-86
2024/04/03 11:00:57;;;;;;;0.00;0.00;;;;;;;22.22;27.54;99526.03;4456770;32;32718;-85
2024/04/03 11:03:25;;;;;;;0.00;0.00;;;;;;;22.44;27.53;99507.78;4444271;32;32854;-86
2024/04/03 11:05:52;;;;;;;0.00;0.00;;;;;;;22.20;27.13;99513.72;4456635;32;32824;-86
2024/04/03 11:08:21;;;;;;;0.00;0.00;;;;;;;22.69;26.49;99507.09;4458219;32;34662;-86
2024/04/03 11:10:47;;;;;;;0.00;0.00;;;;;;;23.02;27.20;99504.72;4462585;32;33125;-86
2024/04/03 11:13:17;;;;;;;0.00;0.00;;;;;;;22.91;26.99;99510.34;4461919;32;32720;-86
2024/04/03 11:15:43;;;;;;;0.35;0.15;;;;;;;22.43;27.44;99506.09;4461978;32;33585;-87
2024/04/03 11:18:10;;;;;;;0.00;0.00;;;;;;;23.04;27.45;99500.06;4449296;32;33028;-87
2024/04/03 11:20:37;;;;;;;0.10;0.10;;;;;;;22.85;26.76;99502.88;4474250;32;33447;-86
2024/04/03 11:23:06;;;;;;;0.10;0.10;;;;;;;23.28;26.30;99488.66;4461780;32;32387;-87
2024/04/03 11:25:34;;;;;;;0.00;0.00;;;;;;;23.62;27.20;99480.66;4462250;32;32731;-87
2024/04/03 11:28:01;;;;;;;0.00;0.00;;;;;;;22.82;27.70;99481.63;4459918;32;34156;-86
2024/04/03 11:30:28;;;;;;;7.65;0.43;;;;;;;22.50;29.14;99488.34;4461548;32;32043;-86
2024/04/03 11:32:58;;;;;;;0.00;0.00;;;;;;;23.04;27.53;99470.44;4448846;32;33745;-87
2024/04/03 11:35:25;;;;;;;0.00;0.00;;;;;;;22.60;28.11;99473.00;4448749;32;33805;-86
2024/04/03 11:37:52;;;;;;;0.00;0.00;;;;;;;23.48;27.60;99459.66;4460905;32;32689;-87
2024/04/03 11:40:18;;;;;;;0.00;0.00;;;;;;;22.72;29.75;99471.78;4448489;32;32729;-87